Time;durP1;ratioP1;P1;durP2;ratioP2;P2;SDS_P1;SDS_P2;PMS_P1;PMS_P2;Temp;Humidity;BMP_temperature;BMP_pressure;BME280_temperature;BME280_humidity;BME280_pressure;Samples;Min_cycle;Max_cycle;Signal;HPM_P1;HPM_P2
2021/04/15 00:00:37;;;;;;;12.67;8.67;;;;;;;;;;2102538;28;20642;-59
2021/04/15 00:01:38;;;;;;;11.47;8.67;;;;;;;;;;2102274;28;20215;-59
2021/04/15 00:02:39;;;;;;;12.00;8.70;;;;;;;;;;2102295;28;20518;-58
2021/04/15 00:03:39;;;;;;;13.17;8.67;;;;;;;;;;2101795;28;20414;-58
2021/04/15 00:04:39;;;;;;;13.30;9.50;;;;;;;;;;2102347;28;20219;-59
2021/04/15 00:05:39;;;;;;;13.90;8.27;;;;;;;;;;2103242;28;20537;-59
2021/04/15 00:06:40;;;;;;;9.80;8.10;;;;;;;;;;2102529;28;20655;-58
2021/04/15 00:07:40;;;;;;;10.63;8.47;;;;;;;;;;2103059;28;20262;-58
2021/04/15 00:08:41;;;;;;;15.13;8.77;;;;;;;;;;2102828;28;20237;-59
2021/04/15 00:09:42;;;;;;;11.83;8.87;;;;;;;;;;2102237;28;20183;-56
2021/04/15 00:10:43;;;;;;;13.27;10.03;;;;;;;;;;2102275;28;20958;-59
2021/04/15 00:11:44;;;;;;;12.03;9.33;;;;;;;;;;2101283;28;20178;-60
2021/04/15 00:12:45;;;;;;;11.60;9.07;;;;;;;;;;2102267;28;20416;-58
2021/04/15 00:13:49;;;;;;;13.80;10.80;;;;;;;;;;2101213;28;20437;-57
2021/04/15 00:14:49;;;;;;;12.73;9.60;;;;;;;;;;2101587;28;20187;-59
2021/04/15 00:15:50;;;;;;;12.47;9.50;;;;;;;;;;2084301;28;20420;-58
2021/04/15 00:16:50;;;;;;;10.93;9.83;;;;;;;;;;2085494;28;20207;-55
2021/04/15 00:17:51;;;;;;;13.47;9.60;;;;;;;;;;2101965;28;20687;-57
2021/04/15 00:18:51;;;;;;;13.17;9.33;;;;;;;;;;2103157;28;20175;-58
2021/04/15 00:19:51;;;;;;;10.97;9.47;;;;;;;;;;2103079;28;20174;-57
2021/04/15 00:20:52;;;;;;;11.37;10.07;;;;;;;;;;2103208;28;20167;-57
2021/04/15 00:21:52;;;;;;;11.43;9.13;;;;;;;;;;2095679;28;20192;-59
2021/04/15 00:22:52;;;;;;;12.03;9.57;;;;;;;;;;2094274;28;20199;-56
2021/04/15 00:23:53;;;;;;;14.87;9.83;;;;;;;;;;2101458;28;20197;-59
2021/04/15 00:24:53;;;;;;;14.40;9.87;;;;;;;;;;2100833;28;20221;-58
2021/04/15 00:25:53;;;;;;;11.53;9.80;;;;;;;;;;2103488;28;20174;-57
2021/04/15 00:26:54;;;;;;;12.10;9.67;;;;;;;;;;2101952;28;20198;-58
2021/04/15 00:27:54;;;;;;;13.03;10.30;;;;;;;;;;2099850;28;20726;-59
2021/04/15 00:28:54;;;;;;;13.77;9.50;;;;;;;;;;2103234;28;20243;-57
2021/04/15 00:29:55;;;;;;;10.77;9.67;;;;;;;;;;2102747;28;20182;-58
2021/04/15 00:30:55;;;;;;;13.50;9.50;;;;;;;;;;2104893;28;20165;-58
2021/04/15 00:31:55;;;;;;;12.67;9.97;;;;;;;;;;2102044;28;20697;-59
2021/04/15 00:32:56;;;;;;;13.23;10.27;;;;;;;;;;2103073;28;20514;-60
2021/04/15 00:33:56;;;;;;;9.90;8.90;;;;;;;;;;2092171;28;20317;-59
2021/04/15 00:34:56;;;;;;;11.90;9.50;;;;;;;;;;2094317;28;20180;-59
2021/04/15 00:35:57;;;;;;;12.17;10.27;;;;;;;;;;2102444;28;20193;-59
2021/04/15 00:36:57;;;;;;;12.60;9.13;;;;;;;;;;2101690;28;20183;-58
2021/04/15 00:37:57;;;;;;;12.53;10.03;;;;;;;;;;2103671;28;20276;-58
2021/04/15 00:38:58;;;;;;;12.30;10.07;;;;;;;;;;2102566;28;20163;-59
2021/04/15 00:39:58;;;;;;;12.40;9.37;;;;;;;;;;2094188;28;20172;-57
2021/04/15 00:40:58;;;;;;;12.30;9.83;;;;;;;;;;2094165;28;20175;-56
2021/04/15 00:41:58;;;;;;;11.20;10.00;;;;;;;;;;2103227;28;20542;-58
2021/04/15 00:42:59;;;;;;;11.50;9.73;;;;;;;;;;2100788;28;20170;-55
2021/04/15 00:44:00;;;;;;;12.93;9.60;;;;;;;;;;2092066;28;20175;-58
2021/04/15 00:45:05;;;;;;;12.07;10.17;;;;;;;;;;2092582;28;20202;-58
2021/04/15 00:46:28;;;;;;;12.10;9.37;;;;;;;;;;2102420;28;20556;-58
2021/04/15 00:47:28;;;;;;;11.60;9.40;;;;;;;;;;2074441;28;20410;-57
2021/04/15 00:48:38;;;;;;;10.80;9.00;;;;;;;;;;2089625;28;20493;-58
2021/04/15 00:49:41;;;;;;;12.40;9.73;;;;;;;;;;2093165;28;20175;-57
2021/04/15 00:50:44;;;;;;;16.13;9.63;;;;;;;;;;2103387;28;20406;-58
2021/04/15 00:51:49;;;;;;;10.87;9.27;;;;;;;;;;2100049;28;20944;-54
2021/04/15 00:52:54;;;;;;;11.40;8.97;;;;;;;;;;2101546;28;20380;-57
2021/04/15 00:54:13;;;;;;;10.17;9.00;;;;;;;;;;2101936;28;20407;-58
2021/04/15 00:55:16;;;;;;;10.03;8.73;;;;;;;;;;2101815;28;20938;-60
2021/04/15 00:56:17;;;;;;;9.83;8.87;;;;;;;;;;2102726;28;20407;-59
2021/04/15 00:57:28;;;;;;;11.27;8.80;;;;;;;;;;2102419;28;20784;-58
2021/04/15 00:58:30;;;;;;;11.57;8.30;;;;;;;;;;2091518;28;20668;-59
2021/04/15 00:59:30;;;;;;;11.73;10.03;;;;;;;;;;2095816;28;20399;-56
2021/04/15 01:00:31;;;;;;;12.23;9.23;;;;;;;;;;2093336;28;20584;-57
2021/04/15 01:01:32;;;;;;;11.50;9.77;;;;;;;;;;2097559;28;20666;-58
2021/04/15 01:02:33;;;;;;;10.17;9.17;;;;;;;;;;2095501;28;20178;-57
2021/04/15 01:03:34;;;;;;;15.07;9.43;;;;;;;;;;2095733;28;20191;-58
2021/04/15 01:04:34;;;;;;;12.53;9.97;;;;;;;;;;2093359;28;20636;-57
2021/04/15 01:05:39;;;;;;;10.37;8.93;;;;;;;;;;2104158;28;20572;-57
2021/04/15 01:06:40;;;;;;;12.53;8.07;;;;;;;;;;2093492;28;20698;-59
2021/04/15 01:07:40;;;;;;;11.20;9.07;;;;;;;;;;2096845;28;20419;-60
2021/04/15 01:08:41;;;;;;;10.13;9.20;;;;;;;;;;2102345;28;20213;-58
2021/04/15 01:09:41;;;;;;;10.90;9.10;;;;;;;;;;2096454;28;20182;-58
2021/04/15 01:10:43;;;;;;;9.80;8.80;;;;;;;;;;2096608;28;20175;-58
2021/04/15 01:11:54;;;;;;;11.97;9.03;;;;;;;;;;2088359;28;20203;-58
2021/04/15 01:13:04;;;;;;;10.43;9.20;;;;;;;;;;2087284;28;20419;-57
2021/04/15 01:14:04;;;;;;;11.10;9.20;;;;;;;;;;2102211;28;20386;-59
2021/04/15 01:15:24;;;;;;;8.97;8.07;;;;;;;;;;2100272;28;20442;-60
2021/04/15 01:16:32;;;;;;;12.27;9.80;;;;;;;;;;2107399;28;20201;-56
2021/04/15 01:17:35;;;;;;;13.70;9.10;;;;;;;;;;2104119;28;20461;-55
2021/04/15 01:18:48;;;;;;;11.63;8.97;;;;;;;;;;2107321;28;20425;-55
2021/04/15 01:19:57;;;;;;;11.07;9.83;;;;;;;;;;2106519;28;20431;-59
2021/04/15 01:21:00;;;;;;;11.70;9.47;;;;;;;;;;2106334;28;20496;-59
2021/04/15 01:22:19;;;;;;;10.87;9.03;;;;;;;;;;2104132;28;20435;-61
2021/04/15 01:23:19;;;;;;;13.37;9.27;;;;;;;;;;2105339;28;20394;-58
2021/04/15 01:24:40;;;;;;;10.13;9.07;;;;;;;;;;2105914;28;20406;-59
2021/04/15 01:25:40;;;;;;;11.73;9.70;;;;;;;;;;2103848;28;20170;-59
2021/04/15 01:26:46;;;;;;;9.97;8.97;;;;;;;;;;2102320;28;20442;-60
2021/04/15 01:27:47;;;;;;;10.80;9.10;;;;;;;;;;2105010;28;20563;-56
2021/04/15 01:29:06;;;;;;;11.73;9.77;;;;;;;;;;2106412;28;20439;-58
2021/04/15 01:30:10;;;;;;;12.63;9.47;;;;;;;;;;2105514;28;21184;-61
2021/04/15 01:31:13;;;;;;;12.47;9.33;;;;;;;;;;2102518;28;20415;-59
2021/04/15 01:32:17;;;;;;;11.30;9.43;;;;;;;;;;2103079;28;20440;-60
2021/04/15 01:33:22;;;;;;;12.73;9.77;;;;;;;;;;2093702;28;21027;-58
2021/04/15 01:34:26;;;;;;;10.80;9.70;;;;;;;;;;2095522;28;20442;-58
2021/04/15 01:35:33;;;;;;;12.17;9.83;;;;;;;;;;2102705;28;20512;-60
2021/04/15 01:36:38;;;;;;;12.73;8.90;;;;;;;;;;2101403;28;20465;-60
2021/04/15 01:37:47;;;;;;;10.53;9.40;;;;;;;;;;2103612;28;20449;-59
2021/04/15 01:38:55;;;;;;;10.43;9.23;;;;;;;;;;2105932;28;20816;-57
2021/04/15 01:40:00;;;;;;;10.40;8.60;;;;;;;;;;2097842;28;20416;-58
2021/04/15 01:41:11;;;;;;;12.17;9.23;;;;;;;;;;2098946;28;20430;-59
2021/04/15 01:42:15;;;;;;;12.20;8.93;;;;;;;;;;2104739;28;20783;-58
2021/04/15 01:43:15;;;;;;;11.47;9.10;;;;;;;;;;2104417;28;20418;-58
2021/04/15 01:44:24;;;;;;;11.27;9.80;;;;;;;;;;2101535;28;20400;-58
2021/04/15 01:45:25;;;;;;;10.73;9.67;;;;;;;;;;2093766;28;20175;-58
2021/04/15 01:46:28;;;;;;;12.10;10.80;;;;;;;;;;2093064;28;20904;-57
2021/04/15 01:47:34;;;;;;;12.27;10.83;;;;;;;;;;2101891;28;20167;-58
2021/04/15 01:48:39;;;;;;;13.03;11.77;;;;;;;;;;2099593;28;20447;-59
2021/04/15 01:49:41;;;;;;;14.03;12.00;;;;;;;;;;2103642;28;20478;-58
2021/04/15 01:50:44;;;;;;;12.97;11.57;;;;;;;;;;2102723;28;20418;-59
2021/04/15 01:51:46;;;;;;;12.83;11.17;;;;;;;;;;2101765;28;20414;-59
2021/04/15 01:52:48;;;;;;;12.20;10.90;;;;;;;;;;2094737;28;20424;-59
2021/04/15 01:53:48;;;;;;;14.93;10.57;;;;;;;;;;2093151;28;20421;-60
2021/04/15 01:54:53;;;;;;;12.07;10.87;;;;;;;;;;2101656;28;20407;-60
2021/04/15 01:55:57;;;;;;;10.93;9.83;;;;;;;;;;2095641;28;20182;-59
2021/04/15 01:57:00;;;;;;;12.90;10.87;;;;;;;;;;2094131;28;20511;-60
2021/04/15 01:58:13;;;;;;;13.47;11.20;;;;;;;;;;2104665;28;20501;-58
2021/04/15 01:59:31;;;;;;;14.43;10.63;;;;;;;;;;2095681;28;20498;-58
2021/04/15 02:00:33;;;;;;;11.47;10.10;;;;;;;;;;2089675;28;20483;-60
2021/04/15 02:01:34;;;;;;;14.73;11.23;;;;;;;;;;2095866;28;20465;-58
2021/04/15 02:02:37;;;;;;;15.73;12.43;;;;;;;;;;2100356;28;20776;-59
2021/04/15 02:03:37;;;;;;;13.30;11.90;;;;;;;;;;2099370;28;20419;-59
2021/04/15 02:04:48;;;;;;;13.23;12.00;;;;;;;;;;2103262;28;20998;-58
2021/04/15 02:05:52;;;;;;;14.67;12.33;;;;;;;;;;2102913;28;20166;-59
2021/04/15 02:06:56;;;;;;;12.97;11.53;;;;;;;;;;2101796;28;20411;-57
2021/04/15 02:08:05;;;;;;;12.07;10.87;;;;;;;;;;2102510;28;20423;-60
2021/04/15 02:09:07;;;;;;;12.87;11.57;;;;;;;;;;2093157;28;20428;-59
2021/04/15 02:10:10;;;;;;;12.43;10.73;;;;;;;;;;2092767;28;20415;-59
2021/04/15 02:11:15;;;;;;;12.97;10.53;;;;;;;;;;2103916;28;20433;-59
2021/04/15 02:12:20;;;;;;;13.13;11.73;;;;;;;;;;2106029;28;20402;-58
2021/04/15 02:13:22;;;;;;;15.43;12.37;;;;;;;;;;2103241;28;20422;-60
2021/04/15 02:14:24;;;;;;;12.23;11.07;;;;;;;;;;2103820;28;20506;-56
2021/04/15 02:15:26;;;;;;;12.43;11.13;;;;;;;;;;2101640;28;20399;-63
2021/04/15 02:16:27;;;;;;;12.37;11.17;;;;;;;;;;2104567;28;20499;-59
2021/04/15 02:17:31;;;;;;;13.37;11.37;;;;;;;;;;2106025;28;20964;-59
2021/04/15 02:18:37;;;;;;;12.60;11.43;;;;;;;;;;2104209;28;20565;-59
2021/04/15 02:19:41;;;;;;;13.23;11.90;;;;;;;;;;2105208;28;21007;-59
2021/04/15 02:20:42;;;;;;;13.10;10.53;;;;;;;;;;2102522;28;20568;-59
2021/04/15 02:21:49;;;;;;;12.63;11.30;;;;;;;;;;2102465;28;20473;-58
2021/04/15 02:22:58;;;;;;;15.07;12.03;;;;;;;;;;2101862;28;20184;-59
2021/04/15 02:24:10;;;;;;;15.77;13.87;;;;;;;;;;2102005;28;20453;-59
2021/04/15 02:25:13;;;;;;;17.50;13.50;;;;;;;;;;2104583;28;20494;-58
2021/04/15 02:26:16;;;;;;;16.73;13.30;;;;;;;;;;2104172;28;20907;-59
2021/04/15 02:27:22;;;;;;;18.37;13.40;;;;;;;;;;2107249;28;20510;-62
2021/04/15 02:28:25;;;;;;;17.57;14.40;;;;;;;;;;2095609;28;20497;-59
2021/04/15 02:29:25;;;;;;;20.03;13.93;;;;;;;;;;2097064;28;20753;-59
2021/04/15 02:30:28;;;;;;;18.60;13.40;;;;;;;;;;2102641;28;20476;-60
2021/04/15 02:31:35;;;;;;;16.53;13.63;;;;;;;;;;2104459;28;20195;-58
2021/04/15 02:32:47;;;;;;;14.70;12.33;;;;;;;;;;2101626;28;20944;-60
2021/04/15 02:34:00;;;;;;;13.97;12.57;;;;;;;;;;2104033;28;20433;-58
2021/04/15 02:35:04;;;;;;;15.20;12.67;;;;;;;;;;2105250;28;20513;-58
2021/04/15 02:36:05;;;;;;;16.70;12.00;;;;;;;;;;2094692;28;20437;-59
2021/04/15 02:37:14;;;;;;;20.27;11.90;;;;;;;;;;2095643;28;20788;-58
2021/04/15 02:38:17;;;;;;;12.97;11.10;;;;;;;;;;2103305;28;20458;-59
2021/04/15 02:39:21;;;;;;;16.87;12.73;;;;;;;;;;2104139;28;20394;-59
2021/04/15 02:40:24;;;;;;;13.10;10.80;;;;;;;;;;2104822;28;20430;-60
2021/04/15 02:41:26;;;;;;;12.67;10.73;;;;;;;;;;2103121;28;20409;-59
2021/04/15 02:42:29;;;;;;;12.53;11.23;;;;;;;;;;2101613;28;20811;-59
2021/04/15 02:43:35;;;;;;;13.87;11.27;;;;;;;;;;2088931;28;20405;-59
2021/04/15 02:44:49;;;;;;;15.50;11.83;;;;;;;;;;2086874;28;20834;-60
2021/04/15 02:45:51;;;;;;;14.40;10.30;;;;;;;;;;2101175;28;20437;-59
2021/04/15 02:46:56;;;;;;;12.63;11.30;;;;;;;;;;2104280;28;20468;-60
2021/04/15 02:48:20;;;;;;;12.47;11.23;;;;;;;;;;2105818;28;20451;-60
2021/04/15 02:49:23;;;;;;;12.73;10.53;;;;;;;;;;2090343;28;20410;-58
2021/04/15 02:50:24;;;;;;;12.27;10.83;;;;;;;;;;2102677;28;20423;-58
2021/04/15 02:51:30;;;;;;;14.20;11.07;;;;;;;;;;2103022;28;20407;-58
2021/04/15 02:52:31;;;;;;;15.50;11.57;;;;;;;;;;2101519;28;20748;-59
2021/04/15 02:53:35;;;;;;;12.53;10.57;;;;;;;;;;2104363;28;20803;-60
2021/04/15 02:54:38;;;;;;;12.40;10.97;;;;;;;;;;2102197;28;20408;-59
2021/04/15 02:55:42;;;;;;;12.30;10.50;;;;;;;;;;2104203;28;20538;-59
2021/04/15 02:56:45;;;;;;;16.57;11.83;;;;;;;;;;2103554;28;20446;-60
2021/04/15 02:57:52;;;;;;;12.50;11.20;;;;;;;;;;2104563;28;20450;-58
2021/04/15 02:58:57;;;;;;;11.53;10.37;;;;;;;;;;2101792;28;20490;-59
2021/04/15 03:00:00;;;;;;;13.43;10.37;;;;;;;;;;2102398;28;20426;-60
2021/04/15 03:01:01;;;;;;;13.87;10.23;;;;;;;;;;2104500;28;20404;-60
2021/04/15 03:02:08;;;;;;;12.97;11.67;;;;;;;;;;2102550;28;20824;-58
2021/04/15 03:03:10;;;;;;;13.90;10.90;;;;;;;;;;2103469;28;20423;-59
2021/04/15 03:04:14;;;;;;;12.83;10.77;;;;;;;;;;2103164;28;20843;-59
2021/04/15 03:05:22;;;;;;;11.83;10.30;;;;;;;;;;2103219;28;20399;-59
2021/04/15 03:06:24;;;;;;;14.80;11.70;;;;;;;;;;2103170;28;20447;-59
2021/04/15 03:07:26;;;;;;;14.60;11.07;;;;;;;;;;2103338;28;20820;-59
2021/04/15 03:08:27;;;;;;;12.70;11.27;;;;;;;;;;2102066;28;20513;-58
2021/04/15 03:09:30;;;;;;;13.70;12.23;;;;;;;;;;2104625;28;20427;-60
2021/04/15 03:10:36;;;;;;;12.87;11.50;;;;;;;;;;2102091;28;20174;-59
2021/04/15 03:11:39;;;;;;;12.97;11.67;;;;;;;;;;2093437;28;20950;-58
2021/04/15 03:12:43;;;;;;;13.97;12.53;;;;;;;;;;2084471;28;20496;-58
2021/04/15 03:13:45;;;;;;;13.53;12.07;;;;;;;;;;2094508;28;20932;-58
2021/04/15 03:15:18;;;;;;;15.20;13.03;;;;;;;;;;2102407;28;20458;-59
2021/04/15 03:16:20;;;;;;;12.30;11.00;;;;;;;;;;2077242;28;20425;-59
2021/04/15 03:17:22;;;;;;;14.77;11.20;;;;;;;;;;2092425;28;20439;-61
2021/04/15 03:18:31;;;;;;;13.53;12.17;;;;;;;;;;2094910;28;20446;-59
2021/04/15 03:19:36;;;;;;;14.27;12.03;;;;;;;;;;2087382;28;20994;-60
2021/04/15 03:20:40;;;;;;;13.67;12.10;;;;;;;;;;2092728;28;20408;-60
2021/04/15 03:21:47;;;;;;;15.73;12.03;;;;;;;;;;2102068;28;20866;-60
2021/04/15 03:22:50;;;;;;;13.30;12.10;;;;;;;;;;2094455;28;20460;-59
2021/04/15 03:23:58;;;;;;;12.63;11.33;;;;;;;;;;2094271;28;20416;-60
2021/04/15 03:24:59;;;;;;;14.27;12.37;;;;;;;;;;2101825;28;20420;-59
2021/04/15 03:26:05;;;;;;;14.40;10.63;;;;;;;;;;2103041;28;20415;-55
2021/04/15 03:27:05;;;;;;;13.83;12.37;;;;;;;;;;2102792;28;20434;-58
2021/04/15 03:28:31;;;;;;;17.93;12.60;;;;;;;;;;2104043;28;20446;-59
2021/04/15 03:29:40;;;;;;;13.33;11.43;;;;;;;;;;2095253;28;20166;-59
2021/04/15 03:30:50;;;;;;;17.00;11.80;;;;;;;;;;2091123;28;20432;-58
2021/04/15 03:31:57;;;;;;;14.10;11.37;;;;;;;;;;2096120;28;20429;-60
2021/04/15 03:33:09;;;;;;;14.07;11.60;;;;;;;;;;2100962;28;20811;-59
2021/04/15 03:34:13;;;;;;;12.73;11.33;;;;;;;;;;2103688;28;20411;-62
2021/04/15 03:35:17;;;;;;;15.50;12.77;;;;;;;;;;2102797;28;20513;-59
2021/04/15 03:36:23;;;;;;;16.27;12.90;;;;;;;;;;2101452;28;20428;-59
2021/04/15 03:37:27;;;;;;;17.83;12.77;;;;;;;;;;2100512;28;20453;-59
2021/04/15 03:38:32;;;;;;;19.33;14.47;;;;;;;;;;2103801;28;20430;-61
2021/04/15 03:39:33;;;;;;;16.83;14.03;;;;;;;;;;2100837;28;20505;-58
2021/04/15 03:40:35;;;;;;;17.03;13.90;;;;;;;;;;2102156;28;20426;-58
2021/04/15 03:41:43;;;;;;;16.67;14.17;;;;;;;;;;2101414;28;20447;-59
2021/04/15 03:42:49;;;;;;;18.50;14.20;;;;;;;;;;2101675;28;20412;-59
2021/04/15 03:43:58;;;;;;;16.70;13.60;;;;;;;;;;2102844;28;20425;-58
2021/04/15 03:45:05;;;;;;;15.07;12.73;;;;;;;;;;2101400;28;20424;-59
2021/04/15 03:46:05;;;;;;;15.43;12.77;;;;;;;;;;2102808;28;20406;-60
2021/04/15 03:47:08;;;;;;;14.57;12.43;;;;;;;;;;2103153;28;20414;-58
2021/04/15 03:48:11;;;;;;;15.73;12.60;;;;;;;;;;2101323;28;20186;-58
2021/04/15 03:49:11;;;;;;;16.33;13.73;;;;;;;;;;2101074;28;20426;-58
2021/04/15 03:50:14;;;;;;;18.27;12.77;;;;;;;;;;2100518;28;20983;-61
2021/04/15 03:51:22;;;;;;;16.13;13.13;;;;;;;;;;2097966;28;20526;-64
2021/04/15 03:52:24;;;;;;;16.00;13.23;;;;;;;;;;2101893;28;20481;-60
2021/04/15 03:53:30;;;;;;;16.10;13.43;;;;;;;;;;2100167;28;20432;-60
2021/04/15 03:54:38;;;;;;;15.23;12.17;;;;;;;;;;2104375;28;20409;-58
2021/04/15 03:55:41;;;;;;;20.97;12.47;;;;;;;;;;2101076;28;20796;-59
2021/04/15 03:56:44;;;;;;;15.67;12.23;;;;;;;;;;2102261;28;20420;-59
2021/04/15 03:57:46;;;;;;;13.97;12.53;;;;;;;;;;2103185;28;20541;-59
2021/04/15 03:58:51;;;;;;;16.13;12.50;;;;;;;;;;2103151;28;20499;-58
2021/04/15 03:59:57;;;;;;;17.87;12.60;;;;;;;;;;2094291;28;20759;-58
2021/04/15 04:01:03;;;;;;;14.67;12.90;;;;;;;;;;2096246;28;20447;-59
2021/04/15 04:02:07;;;;;;;15.80;13.33;;;;;;;;;;2103064;28;20818;-59
2021/04/15 04:03:14;;;;;;;16.20;13.87;;;;;;;;;;2103198;28;20431;-58
2021/04/15 04:04:21;;;;;;;14.80;12.40;;;;;;;;;;2103398;28;20420;-59
2021/04/15 04:05:41;;;;;;;13.93;12.03;;;;;;;;;;2104367;28;20783;-59
2021/04/15 04:06:42;;;;;;;17.63;12.20;;;;;;;;;;2099982;28;20472;-59
2021/04/15 04:07:55;;;;;;;16.50;12.47;;;;;;;;;;2098440;28;20418;-59
2021/04/15 04:08:59;;;;;;;14.20;12.27;;;;;;;;;;2100331;28;20406;-59
2021/04/15 04:10:00;;;;;;;14.17;11.77;;;;;;;;;;2101613;28;20428;-59
2021/04/15 04:11:01;;;;;;;15.33;11.67;;;;;;;;;;2093543;28;20400;-59
2021/04/15 04:12:05;;;;;;;13.30;12.00;;;;;;;;;;2091071;28;20495;-63
2021/04/15 04:13:24;;;;;;;14.77;12.53;;;;;;;;;;2100419;28;20170;-58
2021/04/15 04:14:31;;;;;;;13.97;12.30;;;;;;;;;;2100897;28;20440;-58
2021/04/15 04:15:34;;;;;;;13.70;12.17;;;;;;;;;;2102750;28;20468;-58
2021/04/15 04:16:43;;;;;;;13.33;11.93;;;;;;;;;;2100478;28;20458;-58
2021/04/15 04:17:46;;;;;;;15.23;12.67;;;;;;;;;;2093171;28;20868;-59
2021/04/15 04:18:50;;;;;;;15.57;12.13;;;;;;;;;;2092240;28;20405;-59
2021/04/15 04:19:52;;;;;;;14.43;12.20;;;;;;;;;;2100719;28;20824;-59
2021/04/15 04:21:01;;;;;;;14.33;12.93;;;;;;;;;;2102786;28;20415;-61
2021/04/15 04:22:26;;;;;;;18.50;13.23;;;;;;;;;;2100025;28;20461;-59
2021/04/15 04:23:26;;;;;;;16.07;13.73;;;;;;;;;;2094527;28;20446;-60
2021/04/15 04:24:32;;;;;;;17.17;13.97;;;;;;;;;;2092869;28;20395;-59
2021/04/15 04:25:36;;;;;;;17.73;15.63;;;;;;;;;;2103319;28;20274;-60
2021/04/15 04:26:39;;;;;;;16.63;14.93;;;;;;;;;;2104120;28;20968;-59
2021/04/15 04:27:47;;;;;;;22.50;15.90;;;;;;;;;;2102057;28;20890;-60
2021/04/15 04:29:08;;;;;;;19.27;14.83;;;;;;;;;;2101969;22;20522;-61
2021/04/15 04:30:10;;;;;;;18.30;14.80;;;;;;;;;;2046804;28;20423;-61
2021/04/15 04:31:24;;;;;;;18.37;15.57;;;;;;;;;;2088394;28;20915;-59
2021/04/15 04:32:26;;;;;;;17.87;15.27;;;;;;;;;;2094594;28;20490;-59
2021/04/15 04:33:37;;;;;;;17.87;15.87;;;;;;;;;;2093564;28;20423;-60
2021/04/15 04:34:38;;;;;;;18.93;14.80;;;;;;;;;;2095225;28;20425;-61
2021/04/15 04:35:40;;;;;;;19.90;15.53;;;;;;;;;;2087578;28;20416;-61
2021/04/15 04:36:41;;;;;;;19.37;15.67;;;;;;;;;;2089601;28;20207;-62
2021/04/15 04:37:46;;;;;;;21.20;16.30;;;;;;;;;;2095890;28;20447;-61
2021/04/15 04:38:47;;;;;;;21.50;16.30;;;;;;;;;;2098676;28;20205;-60
2021/04/15 04:39:47;;;;;;;21.10;16.53;;;;;;;;;;2095112;28;20396;-62
2021/04/15 04:40:50;;;;;;;20.80;16.33;;;;;;;;;;2097473;28;20201;-62
2021/04/15 04:42:08;;;;;;;22.00;16.40;;;;;;;;;;2088744;28;20251;-61
2021/04/15 04:43:15;;;;;;;20.83;16.30;;;;;;;;;;2088685;28;20429;-62
2021/04/15 04:44:19;;;;;;;21.33;15.83;;;;;;;;;;2095350;28;20981;-61
2021/04/15 04:45:20;;;;;;;17.70;15.80;;;;;;;;;;2088724;28;20428;-61
2021/04/15 04:46:35;;;;;;;19.07;14.13;;;;;;;;;;2085290;28;20425;-64
2021/04/15 04:47:38;;;;;;;15.20;13.67;;;;;;;;;;2092722;28;20255;-60
2021/04/15 04:48:44;;;;;;;18.80;14.60;;;;;;;;;;2094996;28;20442;-63
2021/04/15 04:49:51;;;;;;;17.77;12.90;;;;;;;;;;2097249;28;20411;-61
2021/04/15 04:50:54;;;;;;;15.27;12.83;;;;;;;;;;2097197;28;20874;-61
2021/04/15 04:51:55;;;;;;;15.67;12.13;;;;;;;;;;2094891;28;20415;-62
2021/04/15 04:52:57;;;;;;;18.07;14.03;;;;;;;;;;2097005;28;20904;-61
2021/04/15 04:54:03;;;;;;;14.83;13.37;;;;;;;;;;2094497;28;20765;-62
2021/04/15 04:55:15;;;;;;;16.70;13.63;;;;;;;;;;2094894;28;20493;-62
2021/04/15 04:56:24;;;;;;;15.67;12.73;;;;;;;;;;2094159;28;20470;-60
2021/04/15 04:57:24;;;;;;;17.40;13.83;;;;;;;;;;2092679;28;20419;-61
2021/04/15 04:58:25;;;;;;;17.63;13.80;;;;;;;;;;2094717;28;20416;-64
2021/04/15 04:59:35;;;;;;;17.77;14.00;;;;;;;;;;2094875;28;20179;-63
2021/04/15 05:00:37;;;;;;;18.60;13.83;;;;;;;;;;2093859;28;20171;-57
2021/04/15 05:01:38;;;;;;;15.90;14.10;;;;;;;;;;2097541;28;20493;-60
2021/04/15 05:02:39;;;;;;;17.13;15.53;;;;;;;;;;2097495;28;20396;-62
2021/04/15 05:03:39;;;;;;;19.00;15.80;;;;;;;;;;2084252;28;20182;-63
2021/04/15 05:04:39;;;;;;;22.87;15.63;;;;;;;;;;2079549;28;20168;-63
2021/04/15 05:05:40;;;;;;;24.10;18.90;;;;;;;;;;2083239;28;20455;-62
2021/04/15 05:06:42;;;;;;;21.00;17.73;;;;;;;;;;2088865;28;20249;-63
2021/04/15 05:07:44;;;;;;;20.43;17.10;;;;;;;;;;2089204;28;20222;-62
2021/04/15 05:08:44;;;;;;;20.63;16.83;;;;;;;;;;2096622;28;20451;-62
2021/04/15 05:09:45;;;;;;;21.23;17.87;;;;;;;;;;2097434;28;20419;-62
2021/04/15 05:10:46;;;;;;;23.17;18.47;;;;;;;;;;2095613;28;20221;-60
2021/04/15 05:11:47;;;;;;;18.97;16.53;;;;;;;;;;2093710;28;20981;-61
2021/04/15 05:12:51;;;;;;;21.77;17.33;;;;;;;;;;2085904;28;20203;-60
2021/04/15 05:13:52;;;;;;;19.67;16.87;;;;;;;;;;2085517;28;20951;-60
2021/04/15 05:14:53;;;;;;;20.43;16.83;;;;;;;;;;2096705;28;20427;-62
2021/04/15 05:15:53;;;;;;;21.07;16.10;;;;;;;;;;2096935;28;20186;-62
2021/04/15 05:16:58;;;;;;;23.73;18.03;;;;;;;;;;2096759;28;20408;-62
2021/04/15 05:17:58;;;;;;;22.33;17.20;;;;;;;;;;2086166;28;20266;-62
2021/04/15 05:18:59;;;;;;;19.67;16.30;;;;;;;;;;2088732;28;20932;-61
2021/04/15 05:20:00;;;;;;;19.03;15.63;;;;;;;;;;2087694;28;20259;-63
2021/04/15 05:21:13;;;;;;;19.53;15.43;;;;;;;;;;2085938;28;20172;-62
2021/04/15 05:22:20;;;;;;;21.63;16.00;;;;;;;;;;2096191;28;20884;-61
2021/04/15 05:23:23;;;;;;;19.17;16.37;;;;;;;;;;2094887;28;20963;-62
2021/04/15 05:24:23;;;;;;;23.80;18.10;;;;;;;;;;2097139;28;20451;-62
2021/04/15 05:25:35;;;;;;;19.27;16.63;;;;;;;;;;2095763;28;20415;-61
2021/04/15 05:26:37;;;;;;;23.47;16.93;;;;;;;;;;2095483;28;20175;-62
2021/04/15 05:27:38;;;;;;;23.10;17.13;;;;;;;;;;2088432;28;20408;-60
2021/04/15 05:28:39;;;;;;;22.37;17.13;;;;;;;;;;2086388;28;20456;-61
2021/04/15 05:29:40;;;;;;;22.03;17.00;;;;;;;;;;2094313;28;20496;-62
2021/04/15 05:30:46;;;;;;;20.23;16.03;;;;;;;;;;2097982;28;20228;-60
2021/04/15 05:31:46;;;;;;;22.27;16.80;;;;;;;;;;2088156;28;20420;-62
2021/04/15 05:32:47;;;;;;;18.77;15.50;;;;;;;;;;2086123;28;20431;-63
2021/04/15 05:33:47;;;;;;;18.93;14.80;;;;;;;;;;2093776;28;20186;-59
2021/04/15 05:34:49;;;;;;;20.30;14.67;;;;;;;;;;2088624;28;20218;-61
2021/04/15 05:36:09;;;;;;;20.87;15.90;;;;;;;;;;2088422;28;20222;-61
2021/04/15 05:37:13;;;;;;;18.20;13.87;;;;;;;;;;2098430;28;20416;-59
2021/04/15 05:38:14;;;;;;;19.93;15.33;;;;;;;;;;2097808;28;20423;-61
2021/04/15 05:39:16;;;;;;;24.37;17.43;;;;;;;;;;2097872;28;20419;-61
2021/04/15 05:40:16;;;;;;;22.23;16.03;;;;;;;;;;2094423;28;20227;-61
2021/04/15 05:41:23;;;;;;;26.40;17.53;;;;;;;;;;2098116;28;20422;-60
2021/04/15 05:42:37;;;;;;;30.17;17.63;;;;;;;;;;2089818;28;20260;-62
2021/04/15 05:43:41;;;;;;;26.43;17.33;;;;;;;;;;2090619;28;20415;-61
2021/04/15 05:44:54;;;;;;;27.03;18.30;;;;;;;;;;2089901;28;20416;-61
2021/04/15 05:46:04;;;;;;;23.73;17.13;;;;;;;;;;2091760;28;20482;-64
2021/04/15 05:47:09;;;;;;;23.40;16.50;;;;;;;;;;2098870;28;20415;-60
2021/04/15 05:48:12;;;;;;;24.03;17.80;;;;;;;;;;2097963;28;20959;-62
2021/04/15 05:49:19;;;;;;;21.40;17.10;;;;;;;;;;2097722;28;20404;-58
2021/04/15 05:50:36;;;;;;;22.17;16.73;;;;;;;;;;2091670;28;20416;-60
2021/04/15 05:51:42;;;;;;;25.03;17.47;;;;;;;;;;2088856;28;20826;-60
2021/04/15 05:52:45;;;;;;;27.57;17.30;;;;;;;;;;2096621;28;20436;-60
2021/04/15 05:53:47;;;;;;;26.33;17.93;;;;;;;;;;2097414;28;20957;-57
2021/04/15 05:54:48;;;;;;;25.30;18.97;;;;;;;;;;2091086;28;21104;-57
2021/04/15 05:55:51;;;;;;;23.53;18.43;;;;;;;;;;2097575;28;20939;-57
2021/04/15 05:57:09;;;;;;;24.53;17.03;;;;;;;;;;2088466;28;20179;-60
2021/04/15 05:58:19;;;;;;;17.13;15.33;;;;;;;;;;2084814;28;20436;-62
2021/04/15 05:59:35;;;;;;;22.23;16.30;;;;;;;;;;2086014;28;20559;-58
2021/04/15 06:00:39;;;;;;;22.43;15.87;;;;;;;;;;2088169;28;20439;-62
2021/04/15 06:01:41;;;;;;;21.90;17.33;;;;;;;;;;2091584;28;20415;-59
2021/04/15 06:02:48;;;;;;;23.63;16.70;;;;;;;;;;2099551;28;20427;-60
2021/04/15 06:03:48;;;;;;;19.53;15.97;;;;;;;;;;2090261;28;20823;-59
2021/04/15 06:04:57;;;;;;;21.87;17.87;;;;;;;;;;2082393;28;20424;-55
2021/04/15 06:06:00;;;;;;;21.27;16.53;;;;;;;;;;2089596;28;20263;-58
2021/04/15 06:07:02;;;;;;;21.67;17.53;;;;;;;;;;2100130;28;20431;-58
2021/04/15 06:08:04;;;;;;;25.73;17.27;;;;;;;;;;2097702;28;20472;-59
2021/04/15 06:09:05;;;;;;;22.83;17.17;;;;;;;;;;2089890;28;20423;-56
2021/04/15 06:10:07;;;;;;;23.13;17.97;;;;;;;;;;2083432;28;20417;-58
2021/04/15 06:11:28;;;;;;;23.83;18.07;;;;;;;;;;2090915;28;20432;-59
2021/04/15 06:12:39;;;;;;;29.03;18.43;;;;;;;;;;2093587;28;20451;-62
2021/04/15 06:13:44;;;;;;;24.60;16.77;;;;;;;;;;2072638;28;20437;-58
2021/04/15 06:14:46;;;;;;;22.93;17.23;;;;;;;;;;2066951;28;20411;-59
2021/04/15 06:15:55;;;;;;;22.87;16.77;;;;;;;;;;2090149;28;20430;-59
2021/04/15 06:17:14;;;;;;;31.30;16.50;;;;;;;;;;2090661;28;20911;-57
2021/04/15 06:18:33;;;;;;;21.80;18.00;;;;;;;;;;2084349;28;20437;-58